DWFW8688 Weather Reports


time (UTC)temp
C
wind
direction
speed
KPH
gust
KPH
rain 1hr
cm
rain 24hr
cm
rain mn
cm
humidity
%
barometer
mb
20210518204607 25 4 9.7 16.1 0.00 0.00 0.00 26 1016.3
20210518204107 25 9 12.9 24.1 0.00 0.00 0.00 27 1016.3
20210518203607 25 343 12.9 24.1 0.00 0.00 0.00 27 1016.5
20210518203107 25 325 9.7 22.5 0.00 0.00 0.00 27 1016.5
20210518202607 25 322 11.3 27.4 0.00 0.00 0.00 26 1016.6
20210518202107 25 315 12.9 24.1 0.00 0.00 0.00 26 1016.7
20210518201608 25 349 9.7 20.9 0.00 0.00 0.00 27 1016.7
20210518201107 25 333 6.4 24.1 0.00 0.00 0.00 27 1016.8
20210518200606 25 319 12.9 22.5 0.00 0.00 0.00 27 1016.8
20210518200107 25 332 9.7 19.3 0.00 0.00 0.00 29 1017.0
20210518195606 25 341 9.7 19.3 0.00 0.00 0.00 28 1016.9
20210518195107 24 300 12.9 22.5 0.00 0.00 0.00 28 1017.0
20210518194607 24 345 14.5 24.1 0.00 0.00 0.00 29 1017.0
20210518194107 24 303 16.1 33.8 0.00 0.00 0.00 29 1016.9
20210518193607 23 350 11.3 16.1 0.00 0.00 0.00 30 1017.1
20210518193107 23 9 12.9 22.5 0.00 0.00 0.00 29 1017.3
20210518192607 23 337 14.5 24.1 0.00 0.00 0.00 30 1017.2
20210518192107 23 343 14.5 22.5 0.00 0.00 0.00 30 1017.1
20210518191607 23 337 16.1 20.9 0.00 0.00 0.00 31 1017.3
20210518191106 23 335 9.7 25.7 0.00 0.00 0.00 31 1017.3
20210518190606 23 347 14.5 22.5 0.00 0.00 0.00 30 1017.4
20210518190106 23 315 16.1 29.0 0.00 0.00 0.00 31 1017.5
20210518185607 23 332 8.0 14.5 0.00 0.00 0.00 32 1017.7
20210518185106 23 320 6.4 12.9 0.00 0.00 0.00 33 1017.8
20210518184606 23 331 11.3 20.9 0.00 0.00 0.00 32 1017.9
20210518184106 23 334 11.3 19.3 0.00 0.00 0.00 32 1018.0
20210518183606 23 343 9.7 20.9 0.00 0.00 0.00 34 1018.0
20210518183107 23 298 11.3 19.3 0.00 0.00 0.00 34 1017.9
20210518182606 23 335 11.3 20.9 0.00 0.00 0.00 34 1017.9
20210518182107 23 274 3.2 12.9 0.00 0.00 0.00 34 1017.9
20210518181607 22 325 4.8 12.9 0.00 0.00 0.00 34 1018.1
20210518181107 22 340 3.2 4.8 0.00 0.00 0.00 37 1018.3
20210518180607 22 172 4.8 9.7 0.00 0.00 0.00 37 1018.3
20210518180107 22 225 1.6 9.7 0.00 0.00 0.00 38 1018.5
20210518175607 22 151 8.0 11.3 0.00 0.00 0.00 38 1018.6
20210518175107 21 179 3.2 8.0 0.00 0.00 0.00 38 1018.6
20210518174606 21 198 1.6 4.8 0.00 0.00 0.00 38 1018.7
20210518174106 21 190 4.8 8.0 0.00 0.00 0.00 39 1018.8
20210518173606 21 145 4.8 9.7 0.00 0.00 0.00 39 1018.8
20210518173107 21 167 1.6 4.8 0.00 0.00 0.00 39 1018.8
20210518172606 20 177 4.8 8.0 0.00 0.00 0.00 41 1019.0
20210518172106 20 179 3.2 11.3 0.00 0.00 0.00 41 1018.9
20210518171607 20 123 3.2 4.8 0.00 0.00 0.00 41 1019.2
20210518171106 20 181 3.2 9.7 0.00 0.00 0.00 43 1019.0
20210518170606 20 165 4.8 9.7 0.00 0.00 0.00 44 1019.0
20210518170107 19 166 4.8 12.9 0.00 0.00 0.00 43 1019.3
20210518165607 19 99 8.0 11.3 0.00 0.00 0.00 43 1019.2
20210518165106 18 114 3.2 8.0 0.00 0.00 0.00 44 1019.3
20210518164607 18 145 3.2 11.3 0.00 0.00 0.00 44 1019.2
20210518164106 18 158 6.4 9.7 0.00 0.00 0.00 44 1019.3
20210518163607 18 145 3.2 8.0 0.00 0.00 0.00 44 1019.3
20210518163107 18 141 8.0 12.9 0.00 0.00 0.00 45 1019.5
20210518162606 18 142 4.8 8.0 0.00 0.00 0.00 47 1019.5
20210518162107 18 138 3.2 4.8 0.00 0.00 0.00 47 1019.3
20210518161606 18 108 3.2 8.0 0.00 0.00 0.00 49 1019.5
20210518161107 17 127 4.8 9.7 0.00 0.00 0.00 52 1019.5
20210518160607 17 142 4.8 9.7 0.00 0.00 0.00 53 1019.5
20210518160107 17 163 4.8 9.7 0.00 0.00 0.00 56 1019.5
20210518155606 17 137 3.2 9.7 0.00 0.00 0.00 55 1019.4
20210518155106 17 150 4.8 9.7 0.00 0.00 0.00 56 1019.6
20210518154606 17 143 4.8 9.7 0.00 0.00 0.00 55 1019.6
20210518154107 17 123 4.8 4.8 0.00 0.00 0.00 56 1019.6
20210518153606 17 143 6.4 9.7 0.00 0.00 0.00 56 1019.5
20210518153107 17 141 0.0 4.8 0.00 0.00 0.00 57 1019.6
20210518152607 17 138 3.2 8.0 0.00 0.00 0.00 57 1019.7
20210518152107 16 110 3.2 8.0 0.00 0.00 0.00 58 1019.6
20210518151606 16 114 1.6 4.8 0.00 0.00 0.00 58 1019.6
20210518151107 16 125 3.2 8.0 0.00 0.00 0.00 57 1019.8
20210518150606 16 112 3.2 8.0 0.00 0.00 0.00 58 1019.7
20210518150106 16 137 3.2 8.0 0.00 0.00 0.00 59 1019.9
20210518145606 16 132 3.2 4.8 0.00 0.00 0.00 60 1019.7
20210518145106 16 137 3.2 4.8 0.00 0.00 0.00 62 1019.7
20210518144606 15 148 3.2 8.0 0.00 0.00 0.00 62 1019.8
20210518144106 15 154 3.2 4.8 0.00 0.00 0.00 63 1019.7
20210518143606 15 171 3.2 4.8 0.00 0.00 0.00 63 1019.9
20210518143106 15 127 3.2 4.8 0.00 0.00 0.00 63 1019.8
20210518142606 15 124 4.8 8.0 0.00 0.00 0.00 63 1019.8
20210518142106 15 113 3.2 4.8 0.00 0.00 0.00 63 1019.9
20210518141606 15 98 3.2 8.0 0.00 0.00 0.00 63 1019.9
20210518141106 15 76 3.2 9.7 0.00 0.00 0.00 64 1019.9
20210518140606 15 55 1.6 4.8 0.00 0.00 0.00 64 1019.8
20210518140106 15 41 3.2 4.8 0.00 0.00 0.00 64 1019.9
20210518135606 14 30 3.2 4.8 0.00 0.00 0.00 64 1019.9
20210518135106 13 21 0.0 3.2 0.00 0.00 0.00 68 1019.9
20210518134606 13 21 0.0 0.0 0.00 0.00 0.00 69 1019.8
20210518134106 12 21 0.0 0.0 0.00 0.00 0.00 70 1019.9
20210518133606 12 21 0.0 0.0 0.00 0.00 0.00 71 1020.0
20210518133106 12 21 0.0 1.6 0.00 0.00 0.00 72 1020.1
20210518132606 11 21 0.0 0.0 0.00 0.00 0.00 72 1019.8
20210518132107 11 21 0.0 0.0 0.00 0.00 0.00 72 1019.9
20210518131606 11 21 0.0 1.6 0.00 0.00 0.00 72 1019.9
20210518131106 11 21 1.6 3.2 0.00 0.00 0.00 72 1019.9
20210518130606 11 23 0.0 3.2 0.00 0.00 0.00 72 1019.9
20210518130106 11 22 0.0 1.6 0.00 0.00 0.00 71 1019.7
20210518125606 11 22 0.0 0.0 0.00 0.00 0.00 71 1019.8
20210518125106 11 22 0.0 3.2 0.00 0.00 0.00 71 1019.6
20210518124606 11 22 1.6 3.2 0.00 0.00 0.00 70 1019.7
20210518124106 11 22 1.6 3.2 0.00 0.00 0.00 70 1019.7
20210518123606 11 21 0.0 1.6 0.00 0.00 0.00 70 1019.6
20210518123106 11 21 1.6 3.2 0.00 0.00 0.00 70 1019.6
20210518122606 11 21 0.0 3.2 0.00 0.00 0.00 70 1019.5
20210518122106 11 21 1.6 4.8 0.00 0.00 0.00 70 1019.4
20210518121605 11 18 1.6 3.2 0.00 0.00 0.00 70 1019.3
20210518121106 11 11 1.6 3.2 0.00 0.00 0.00 69 1019.4
20210518120606 11 11 0.0 1.6 0.00 0.00 0.00 69 1019.3
20210518120106 11 11 1.6 3.2 0.00 0.00 0.00 69 1019.3
20210518115606 11 11 0.0 1.6 0.00 0.00 0.00 69 1019.3
20210518115106 11 11 1.6 3.2 0.00 0.00 0.00 69 1019.3
20210518114606 11 11 1.6 3.2 0.00 0.00 0.00 69 1019.3
20210518114106 11 10 0.0 0.0 0.00 0.00 0.00 69 1019.2
20210518113605 11 10 1.6 3.2 0.00 0.00 0.00 69 1019.3
20210518113106 11 11 1.6 3.2 0.00 0.00 0.00 69 1019.1
20210518112605 11 11 0.0 0.0 0.00 0.00 0.00 68 1019.1
20210518112106 11 11 0.0 0.0 0.00 0.00 0.00 68 1019.0
20210518111605 11 11 0.0 0.0 0.00 0.00 0.00 67 1019.1
20210518111105 11 11 0.0 0.0 0.00 0.00 0.00 67 1019.1
20210518110606 11 11 0.0 0.0 0.00 0.00 0.00 67 1019.1
20210518110106 11 11 0.0 0.0 0.00 0.00 0.00 67 1019.2
20210518105606 11 11 0.0 0.0 0.00 0.00 0.00 66 1019.1
20210518105105 12 11 0.0 0.0 0.00 0.00 0.00 66 1019.0
20210518104605 12 11 0.0 0.0 0.00 0.00 0.00 66 1019.1
20210518104106 12 11 0.0 0.0 0.00 0.00 0.00 66 1019.1
20210518103606 12 11 0.0 0.0 0.00 0.00 0.00 65 1019.1
20210518103105 12 11 0.0 0.0 0.00 0.00 0.00 66 1019.1
20210518102605 12 11 0.0 1.6 0.00 0.00 0.00 65 1019.0
20210518102106 12 11 0.0 1.6 0.00 0.00 0.00 65 1019.0
20210518101605 12 11 0.0 3.2 0.00 0.00 0.00 65 1019.1
20210518101105 12 10 1.6 3.2 0.00 0.00 0.00 65 1019.1
20210518100605 12 5 0.0 3.2 0.00 0.00 0.00 65 1019.1
20210518100105 12 5 1.6 3.2 0.00 0.00 0.00 64 1019.1
20210518095606 12 0 0.0 3.2 0.00 0.00 0.00 64 1019.0
20210518095106 12 355 1.6 1.6 0.00 0.00 0.00 63 1018.8
20210518094605 12 355 0.0 1.6 0.00 0.00 0.00 63 1018.7
20210518094106 12 355 1.6 1.6 0.00 0.00 0.00 63 1018.7
20210518093605 12 355 1.6 1.6 0.00 0.00 0.00 63 1018.9
20210518093106 12 355 0.0 0.0 0.00 0.00 0.00 62 1018.7
20210518092606 12 355 0.0 0.0 0.00 0.00 0.00 62 1018.5
20210518092106 12 355 0.0 0.0 0.00 0.00 0.00 62 1018.5
20210518091605 12 355 0.0 0.0 0.00 0.00 0.00 62 1018.5
20210518091106 12 355 0.0 0.0 0.00 0.00 0.00 62 1018.5
20210518090606 12 355 0.0 3.2 0.00 0.00 0.00 62 1018.5
20210518090105 12 355 0.0 3.2 0.00 0.00 0.00 62 1018.4
20210518085605 12 355 0.0 1.6 0.00 0.00 0.00 62 1018.4
20210518085106 12 355 3.2 3.2 0.00 0.00 0.00 62 1018.5
20210518084605 12 306 1.6 3.2 0.00 0.00 0.00 62 1018.5
20210518084106 13 284 0.0 1.6 0.00 0.00 0.00 61 1018.6
20210518083605 13 284 0.0 0.0 0.00 0.00 0.00 61 1018.5
20210518083105 13 284 0.0 0.0 0.00 0.00 0.00 61 1018.6
20210518082605 13 284 0.0 0.0 0.00 0.00 0.00 60 1018.6
20210518082106 13 284 0.0 3.2 0.00 0.00 0.00 60 1018.7
20210518081606 13 285 0.0 3.2 0.00 0.00 0.00 59 1018.6
20210518081105 13 285 3.2 4.8 0.00 0.00 0.00 59 1018.7
20210518080605 13 170 3.2 4.8 0.00 0.00 0.00 58 1018.5
20210518080105 13 119 1.6 3.2 0.00 0.00 0.00 58 1018.5
20210518075605 13 119 1.6 4.8 0.00 0.00 0.00 58 1018.5
20210518075105 13 116 1.6 4.8 0.00 0.00 0.00 58 1018.6
20210518074605 13 132 1.6 3.2 0.00 0.00 0.00 59 1018.6
20210518074105 13 138 1.6 3.2 0.00 0.00 0.00 59 1018.8
20210518073605 13 158 1.6 3.2 0.00 0.00 0.00 58 1018.7
20210518073105 13 209 1.6 3.2 0.00 0.00 0.00 58 1018.8
20210518072605 13 211 1.6 4.8 0.00 0.00 0.00 57 1018.7
20210518072106 14 204 1.6 4.8 0.00 0.00 0.00 56 1018.7
20210518071605 14 182 1.6 3.2 0.00 0.00 0.00 56 1018.7
20210518071105 14 155 1.6 3.2 0.00 0.00 0.00 55 1018.6
20210518070604 14 142 1.6 4.8 0.00 0.00 0.00 55 1018.5
20210518070106 14 135 3.2 4.8 0.00 0.00 0.00 54 1018.3
20210518065605 15 44 1.6 3.2 0.00 0.00 0.00 54 1018.3
20210518065104 15 44 1.6 3.2 0.00 0.00 0.00 53 1018.5
20210518064605 15 43 1.6 4.8 0.00 0.00 0.00 53 1018.4
20210518064104 15 43 3.2 4.8 0.00 0.00 0.00 53 1018.6
20210518063605 15 44 1.6 4.8 0.00 0.00 0.00 53 1018.4
20210518063105 15 47 4.8 4.8 0.00 0.00 0.00 53 1018.4
20210518062605 15 59 3.2 4.8 0.00 0.00 0.00 53 1018.4
20210518062105 15 59 3.2 4.8 0.00 0.00 0.00 53 1018.5
20210518061605 15 57 3.2 4.8 0.00 0.00 0.00 53 1018.6
20210518061105 15 46 1.6 4.8 0.00 0.00 0.00 53 1018.6
20210518060605 15 38 3.2 4.8 0.00 0.00 0.00 53 1018.7
20210518060105 15 40 4.8 4.8 0.00 0.00 0.00 53 1018.9
20210518055604 15 51 1.6 4.8 0.00 0.00 0.00 52 1018.7
20210518055105 15 52 3.2 4.8 0.00 0.00 0.00 52 1018.6
20210518054605 15 55 4.8 4.8 0.00 0.00 0.00 52 1018.7
20210518054104 15 36 3.2 4.8 0.00 0.00 0.00 51 1018.8
20210518053605 15 36 1.6 3.2 0.00 0.00 0.00 50 1018.8
20210518053105 15 36 0.0 1.6 0.00 0.00 0.00 49 1018.7
20210518052605 16 36 0.0 3.2 0.00 0.00 0.00 49 1018.9
20210518052105 16 36 1.6 4.8 0.00 0.00 0.00 48 1018.9
20210518051605 16 41 1.6 3.2 0.00 0.00 0.00 48 1019.1
20210518051105 16 40 1.6 3.2 0.00 0.00 0.00 48 1019.0
20210518050605 16 39 1.6 3.2 0.00 0.00 0.00 47 1019.0
20210518050105 16 27 1.6 3.2 0.00 0.00 0.00 46 1018.9
20210518045604 16 17 0.0 3.2 0.00 0.00 0.00 45 1018.7
20210518045104 17 17 1.6 3.2 0.00 0.00 0.00 44 1018.8
20210518044605 17 18 1.6 3.2 0.00 0.00 0.00 44 1018.9
20210518044105 17 24 1.6 3.2 0.00 0.00 0.00 44 1018.9
20210518043605 17 39 0.0 1.6 0.00 0.00 0.00 44 1018.8
20210518043104 17 39 0.0 3.2 0.00 0.00 0.00 44 1019.0
20210518042605 17 39 0.0 3.2 0.00 0.00 0.00 44 1018.8
20210518042105 17 39 3.2 4.8 0.00 0.00 0.00 44 1018.8
20210518041605 17 34 3.2 8.0 0.00 0.00 0.00 44 1018.8
20210518041104 17 33 4.8 9.7 0.00 0.00 0.00 44 1018.9
20210518040604 17 16 3.2 4.8 0.00 0.00 0.00 44 1018.7
20210518040104 17 338 4.8 8.0 0.00 0.00 0.00 43 1018.7
20210518035604 17 336 4.8 4.8 0.00 0.00 0.00 43 1018.5
20210518035105 17 340 3.2 4.8 0.00 0.00 0.00 42 1018.5
20210518034604 18 330 3.2 4.8 0.00 0.00 0.00 42 1018.4
20210518034105 18 273 1.6 4.8 0.00 0.00 0.00 41 1018.3
20210518033604 18 272 3.2 4.8 0.00 0.00 0.00 41 1018.1
20210518033104 18 271 1.6 3.2 0.00 0.00 0.00 41 1018.2
20210518032605 18 269 0.0 1.6 0.00 0.00 0.00 40 1018.0
20210518032105 18 269 0.0 3.2 0.00 0.00 0.00 40 1017.9
20210518031604 18 273 1.6 4.8 0.00 0.00 0.00 40 1017.9
20210518031104 18 262 1.6 4.8 0.00 0.00 0.00 39 1018.0
20210518030604 18 239 1.6 3.2 0.00 0.00 0.00 39 1017.9
20210518030104 18 239 1.6 3.2 0.00 0.00 0.00 39 1017.9
20210518025604 19 234 0.0 3.2 0.00 0.00 0.00 39 1017.9
20210518025105 19 235 1.6 3.2 0.00 0.00 0.00 39 1017.9
20210518024605 19 240 1.6 3.2 0.00 0.00 0.00 38 1017.7
20210518024104 19 241 0.0 4.8 0.00 0.00 0.00 38 1017.7
20210518023604 20 257 0.0 3.2 0.00 0.00 0.00 38 1017.5
20210518023104 20 257 1.6 4.8 0.00 0.00 0.00 38 1017.5
20210518022604 20 260 3.2 4.8 0.00 0.00 0.00 37 1017.3
20210518022105 20 259 3.2 8.0 0.00 0.00 0.00 37 1017.4
20210518021604 20 233 3.2 9.7 0.00 0.00 0.00 37 1017.3
20210518021104 20 207 3.2 12.9 0.00 0.00 0.00 37 1017.3
20210518020605 20 190 9.7 24.1 0.00 0.00 0.00 37 1017.4
20210518020105 20 190 8.0 19.3 0.00 0.00 0.00 37 1017.1
20210518015604 20 197 11.3 19.3 0.00 0.00 0.00 37 1017.1
20210518015104 21 187 9.7 22.5 0.00 0.00 0.00 36 1017.1
20210518014604 21 183 11.3 19.3 0.00 0.00 0.00 35 1017.0
20210518014104 21 280 4.8 11.3 0.00 0.00 0.00 36 1017.0
20210518013605 21 203 11.3 22.5 0.00 0.00 0.00 35 1017.1
20210518013104 21 257 4.8 9.7 0.00 0.00 0.00 31 1017.0
20210518012605 21 277 4.8 11.3 0.00 0.00 0.00 31 1016.8
20210518012104 21 289 11.3 14.5 0.00 0.00 0.00 31 1016.9
20210518011604 21 282 11.3 19.3 0.00 0.00 0.00 32 1017.0
20210518011104 21 288 11.3 16.1 0.00 0.00 0.00 32 1017.0
20210518010604 21 293 9.7 14.5 0.00 0.00 0.00 32 1016.9
20210518010104 21 304 9.7 16.1 0.00 0.00 0.00 32 1016.8
20210518005604 21 286 11.3 19.3 0.00 0.00 0.00 33 1016.9
20210518005104 21 291 16.1 19.3 0.00 0.00 0.00 32 1016.9
20210518004604 21 284 9.7 19.3 0.00 0.00 0.00 33 1016.8
20210518004104 21 315 8.0 20.9 0.00 0.00 0.00 32 1016.8
20210518003604 21 304 14.5 24.1 0.00 0.00 0.00 33 1016.8
20210518003104 22 294 14.5 24.1 0.00 0.00 0.00 32 1016.8
20210518002604 22 299 14.5 20.9 0.00 0.00 0.00 32 1016.6
20210518002106 22 327 9.7 20.9 0.00 0.00 0.00 33 1016.6
20210518001606 21 308 12.9 24.1 0.00 0.00 0.00 33 1016.7
20210518001104 21 294 19.3 27.4 0.00 0.00 0.00 31 1016.7
20210518000604 21 291 14.5 22.5 0.00 0.00 0.00 33 1016.8
20210518000105 21 298 14.5 24.1 0.00 0.00 0.00 33 1016.7
20210517235608 21 283 16.1 25.7 0.00 0.00 0.00 33 1016.7
20210517235108 22 285 19.3 25.7 0.00 0.00 0.00 33 1016.7
20210517234607 22 314 12.9 24.1 0.00 0.00 0.00 33 1016.6
20210517234107 22 305 16.1 25.7 0.00 0.00 0.00 32 1016.7
20210517233608 22 285 19.3 25.7 0.00 0.00 0.00 31 1016.6
20210517233108 22 290 14.5 24.1 0.00 0.00 0.00 32 1016.6
20210517232608 22 292 17.7 32.2 0.00 0.00 0.00 32 1016.5
20210517232107 22 291 11.3 24.1 0.00 0.00 0.00 32 1016.7
20210517231607 22 321 9.7 12.9 0.00 0.00 0.00 33 1016.8
20210517231107 22 300 12.9 20.9 0.00 0.00 0.00 33 1016.8
20210517230607 22 277 16.1 24.1 0.00 0.00 0.00 32 1016.9
20210517230108 22 318 11.3 16.1 0.00 0.00 0.00 31 1017.0
20210517225608 22 336 9.7 19.3 0.00 0.00 0.00 30 1017.0
20210517225107 22 335 11.3 27.4 0.00 0.00 0.00 31 1017.2
20210517224607 22 354 16.1 20.9 0.00 0.00 0.00 32 1017.2
20210517224107 22 7 9.7 19.3 0.00 0.00 0.00 33 1017.2
20210517223607 21 354 11.3 20.9 0.00 0.00 0.00 33 1017.1
20210517223107 21 338 16.1 29.0 0.00 0.00 0.00 33 1017.3
20210517222607 21 335 16.1 25.7 0.00 0.00 0.00 34 1017.3
20210517222108 21 342 20.9 32.2 0.00 0.00 0.00 34 1017.4
20210517221608 21 333 20.9 37.0 0.00 0.00 0.00 34 1017.4
20210517221107 21 333 20.9 37.0 0.00 0.00 0.00 34 1017.5
20210517220607 21 352 14.5 29.0 0.00 0.00 0.00 36 1017.5
20210517220108 21 6 16.1 32.2 0.00 0.00 0.00 37 1017.6
20210517215607 21 2 17.7 25.7 0.00 0.00 0.00 36 1017.6
20210517215107 21 359 16.1 25.7 0.00 0.00 0.00 36 1017.6
20210517214607 21 349 22.5 35.4 0.00 0.00 0.00 38 1017.6
20210517214108 21 341 14.5 27.4 0.00 0.00 0.00 34 1017.7
20210517213607 21 328 16.1 27.4 0.00 0.00 0.00 37 1017.9
20210517213107 21 342 11.3 24.1 0.00 0.00 0.00 40 1017.8
20210517212607 20 327 19.3 27.4 0.00 0.00 0.00 42 1017.7
20210517212107 20 326 17.7 29.0 0.00 0.00 0.00 45 1017.7
20210517211607 21 335 14.5 29.0 0.00 0.00 0.00 45 1017.9
20210517211107 21 354 16.1 32.2 0.00 0.00 0.00 46 1017.8
20210517210607 21 331 20.9 32.2 0.00 0.00 0.00 45 1017.8
20210517210108 21 340 16.1 25.7 0.00 0.00 0.00 44 1017.7
20210517205607 21 334 12.9 22.5 0.00 0.00 0.00 45 1017.6
20210517205107 21 354 14.5 20.9 0.00 0.00 0.00 44 1017.7